Bradford, New York
Current Conditions -  °F | °C
As of 7:53 PM on Tuesday 27 Jan 2015 (Local Time) from KELM Reporting Station
Clear Clear  
Wind Chill:   Ceiling: Unl
Heat Index: 13°   Visibility: 10mi
Dew Point:   Wind: 5mph
Humidity: 62%   Direction: NA
Pressure: 29.99"   Gusts: NA
Location:  42.37°N, 77.11°W
Report Text: KELM 280053Z AUTO VRB04KT 10SM CLR M11/M17 A2999 RMK AO2 SLP173 T11061167
Loading
Personal Weather Stations






























Interactive Weather Map New forecast layout! Learn more

10-Day Weather Forecast

Advertisements
Track Severe Weather on mobile